sensor_id;sensor_type;location;lat;lon;timestamp;P1;durP1;ratioP1;P2;durP2;ratioP2
22024;SDS011;11176;51.448;6.650;2023-07-09T00:01:14;7.22;;;4.70;;
22024;SDS011;11176;51.448;6.650;2023-07-09T00:03:44;7.60;;;4.32;;
22024;SDS011;11176;51.448;6.650;2023-07-09T00:06:12;9.80;;;5.03;;
22024;SDS011;11176;51.448;6.650;2023-07-09T00:08:40;6.40;;;4.32;;
22024;SDS011;11176;51.448;6.650;2023-07-09T00:11:10;12.27;;;5.03;;
22024;SDS011;11176;51.448;6.650;2023-07-09T00:13:37;9.32;;;4.63;;
22024;SDS011;11176;51.448;6.650;2023-07-09T00:16:07;8.63;;;4.50;;
22024;SDS011;11176;51.448;6.650;2023-07-09T00:18:39;8.73;;;4.70;;
22024;SDS011;11176;51.448;6.650;2023-07-09T00:21:05;5.90;;;4.05;;
22024;SDS011;11176;51.448;6.650;2023-07-09T00:23:32;9.45;;;4.63;;
22024;SDS011;11176;51.448;6.650;2023-07-09T00:25:59;8.30;;;4.65;;
22024;SDS011;11176;51.448;6.650;2023-07-09T00:28:30;6.85;;;4.50;;
22024;SDS011;11176;51.448;6.650;2023-07-09T00:30:56;6.47;;;3.90;;
22024;SDS011;11176;51.448;6.650;2023-07-09T00:33:24;9.02;;;4.70;;
22024;SDS011;11176;51.448;6.650;2023-07-09T00:35:58;8.88;;;4.43;;
22024;SDS011;11176;51.448;6.650;2023-07-09T00:38:27;8.82;;;4.80;;
22024;SDS011;11176;51.448;6.650;2023-07-09T00:43:32;8.43;;;4.38;;
22024;SDS011;11176;51.448;6.650;2023-07-09T00:46:14;8.43;;;4.80;;
22024;SDS011;11176;51.448;6.650;2023-07-09T00:48:50;8.77;;;4.35;;
22024;SDS011;11176;51.448;6.650;2023-07-09T00:51:24;7.70;;;4.45;;
22024;SDS011;11176;51.448;6.650;2023-07-09T00:53:53;13.15;;;4.75;;
22024;SDS011;11176;51.448;6.650;2023-07-09T00:56:28;6.83;;;4.13;;
22024;SDS011;11176;51.448;6.650;2023-07-09T00:59:00;8.68;;;4.93;;
22024;SDS011;11176;51.448;6.650;2023-07-09T01:01:31;8.35;;;4.47;;
22024;SDS011;11176;51.448;6.650;2023-07-09T01:03:59;9.75;;;4.60;;
22024;SDS011;11176;51.448;6.650;2023-07-09T01:06:33;10.18;;;4.80;;
22024;SDS011;11176;51.448;6.650;2023-07-09T01:09:04;9.52;;;5.10;;
22024;SDS011;11176;51.448;6.650;2023-07-09T01:11:32;8.15;;;4.60;;
22024;SDS011;11176;51.448;6.650;2023-07-09T01:14:00;8.23;;;4.63;;
22024;SDS011;11176;51.448;6.650;2023-07-09T01:16:30;9.57;;;4.72;;
22024;SDS011;11176;51.448;6.650;2023-07-09T01:19:02;9.55;;;5.63;;
22024;SDS011;11176;51.448;6.650;2023-07-09T01:21:32;7.70;;;4.68;;
22024;SDS011;11176;51.448;6.650;2023-07-09T01:23:58;8.05;;;4.57;;
22024;SDS011;11176;51.448;6.650;2023-07-09T01:26:38;9.75;;;5.10;;
22024;SDS011;11176;51.448;6.650;2023-07-09T01:29:06;7.20;;;4.35;;
22024;SDS011;11176;51.448;6.650;2023-07-09T01:31:33;8.25;;;4.60;;
22024;SDS011;11176;51.448;6.650;2023-07-09T01:34:02;10.32;;;4.57;;
22024;SDS011;11176;51.448;6.650;2023-07-09T01:36:29;9.95;;;5.32;;
22024;SDS011;11176;51.448;6.650;2023-07-09T01:38:55;9.52;;;4.85;;
22024;SDS011;11176;51.448;6.650;2023-07-09T01:41:22;11.57;;;5.40;;
22024;SDS011;11176;51.448;6.650;2023-07-09T01:43:50;10.40;;;5.10;;
22024;SDS011;11176;51.448;6.650;2023-07-09T01:46:17;10.93;;;5.35;;
22024;SDS011;11176;51.448;6.650;2023-07-09T01:48:44;9.35;;;5.05;;
22024;SDS011;11176;51.448;6.650;2023-07-09T01:51:15;7.93;;;4.65;;
22024;SDS011;11176;51.448;6.650;2023-07-09T01:53:42;7.40;;;5.00;;
22024;SDS011;11176;51.448;6.650;2023-07-09T01:56:10;9.73;;;5.13;;
22024;SDS011;11176;51.448;6.650;2023-07-09T01:58:37;8.45;;;4.65;;
22024;SDS011;11176;51.448;6.650;2023-07-09T02:01:10;7.30;;;5.03;;
22024;SDS011;11176;51.448;6.650;2023-07-09T02:03:37;9.35;;;5.15;;
22024;SDS011;11176;51.448;6.650;2023-07-09T02:06:03;7.68;;;5.07;;
22024;SDS011;11176;51.448;6.650;2023-07-09T02:08:36;7.60;;;4.55;;
22024;SDS011;11176;51.448;6.650;2023-07-09T02:11:03;10.85;;;5.57;;
22024;SDS011;11176;51.448;6.650;2023-07-09T02:13:30;9.73;;;4.90;;
22024;SDS011;11176;51.448;6.650;2023-07-09T02:15:57;7.85;;;4.97;;
22024;SDS011;11176;51.448;6.650;2023-07-09T02:18:24;8.10;;;5.00;;
22024;SDS011;11176;51.448;6.650;2023-07-09T02:20:51;8.48;;;5.28;;
22024;SDS011;11176;51.448;6.650;2023-07-09T02:23:17;9.07;;;5.40;;
22024;SDS011;11176;51.448;6.650;2023-07-09T02:25:44;8.45;;;5.40;;
22024;SDS011;11176;51.448;6.650;2023-07-09T02:28:10;12.40;;;5.28;;
22024;SDS011;11176;51.448;6.650;2023-07-09T02:30:37;8.10;;;5.45;;
22024;SDS011;11176;51.448;6.650;2023-07-09T02:33:03;10.48;;;5.53;;
22024;SDS011;11176;51.448;6.650;2023-07-09T02:35:30;7.68;;;4.70;;
22024;SDS011;11176;51.448;6.650;2023-07-09T02:37:56;9.77;;;5.55;;
22024;SDS011;11176;51.448;6.650;2023-07-09T02:40:23;11.63;;;5.30;;
22024;SDS011;11176;51.448;6.650;2023-07-09T02:42:50;9.90;;;5.68;;
22024;SDS011;11176;51.448;6.650;2023-07-09T02:45:17;8.05;;;4.80;;
22024;SDS011;11176;51.448;6.650;2023-07-09T02:47:45;10.07;;;4.80;;
22024;SDS011;11176;51.448;6.650;2023-07-09T02:50:13;10.90;;;5.22;;
22024;SDS011;11176;51.448;6.650;2023-07-09T02:52:40;10.45;;;5.15;;
22024;SDS011;11176;51.448;6.650;2023-07-09T02:55:08;11.15;;;5.57;;
22024;SDS011;11176;51.448;6.650;2023-07-09T02:57:35;7.25;;;4.88;;
22024;SDS011;11176;51.448;6.650;2023-07-09T03:00:01;9.60;;;5.63;;
22024;SDS011;11176;51.448;6.650;2023-07-09T03:02:31;8.88;;;5.13;;
22024;SDS011;11176;51.448;6.650;2023-07-09T03:04:58;7.60;;;5.10;;
22024;SDS011;11176;51.448;6.650;2023-07-09T03:07:24;9.55;;;4.95;;
22024;SDS011;11176;51.448;6.650;2023-07-09T03:09:51;7.55;;;4.57;;
22024;SDS011;11176;51.448;6.650;2023-07-09T03:12:18;8.07;;;4.47;;
22024;SDS011;11176;51.448;6.650;2023-07-09T03:14:47;8.55;;;4.53;;
22024;SDS011;11176;51.448;6.650;2023-07-09T03:17:15;8.35;;;4.80;;
22024;SDS011;11176;51.448;6.650;2023-07-09T03:19:42;9.80;;;4.70;;
22024;SDS011;11176;51.448;6.650;2023-07-09T03:22:08;9.63;;;5.30;;
22024;SDS011;11176;51.448;6.650;2023-07-09T03:24:35;8.73;;;4.82;;
22024;SDS011;11176;51.448;6.650;2023-07-09T03:27:01;7.05;;;4.70;;
22024;SDS011;11176;51.448;6.650;2023-07-09T03:29:28;9.38;;;4.80;;
22024;SDS011;11176;51.448;6.650;2023-07-09T03:31:54;8.02;;;4.85;;
22024;SDS011;11176;51.448;6.650;2023-07-09T03:34:21;8.77;;;4.85;;
22024;SDS011;11176;51.448;6.650;2023-07-09T03:36:48;7.75;;;4.93;;
22024;SDS011;11176;51.448;6.650;2023-07-09T03:39:14;7.93;;;4.80;;
22024;SDS011;11176;51.448;6.650;2023-07-09T03:41:41;8.50;;;5.40;;
22024;SDS011;11176;51.448;6.650;2023-07-09T03:44:07;9.43;;;4.60;;
22024;SDS011;11176;51.448;6.650;2023-07-09T03:46:34;9.55;;;5.07;;
22024;SDS011;11176;51.448;6.650;2023-07-09T03:49:00;7.90;;;5.07;;
22024;SDS011;11176;51.448;6.650;2023-07-09T03:51:27;8.05;;;5.15;;
22024;SDS011;11176;51.448;6.650;2023-07-09T03:53:54;8.50;;;4.93;;
22024;SDS011;11176;51.448;6.650;2023-07-09T03:56:20;9.38;;;4.93;;
22024;SDS011;11176;51.448;6.650;2023-07-09T03:58:47;8.88;;;5.50;;
22024;SDS011;11176;51.448;6.650;2023-07-09T04:01:13;9.80;;;5.47;;
22024;SDS011;11176;51.448;6.650;2023-07-09T04:03:43;8.65;;;4.60;;
22024;SDS011;11176;51.448;6.650;2023-07-09T04:06:09;9.07;;;4.95;;
22024;SDS011;11176;51.448;6.650;2023-07-09T04:08:36;9.63;;;5.25;;
22024;SDS011;11176;51.448;6.650;2023-07-09T04:11:02;8.75;;;4.85;;
22024;SDS011;11176;51.448;6.650;2023-07-09T04:13:29;9.18;;;4.82;;
22024;SDS011;11176;51.448;6.650;2023-07-09T04:15:56;8.43;;;5.15;;
22024;SDS011;11176;51.448;6.650;2023-07-09T04:18:23;8.10;;;5.15;;
22024;SDS011;11176;51.448;6.650;2023-07-09T04:20:50;6.97;;;4.65;;
22024;SDS011;11176;51.448;6.650;2023-07-09T04:23:18;6.78;;;4.60;;
22024;SDS011;11176;51.448;6.650;2023-07-09T04:25:45;9.35;;;4.97;;
22024;SDS011;11176;51.448;6.650;2023-07-09T04:28:12;9.63;;;4.82;;
22024;SDS011;11176;51.448;6.650;2023-07-09T04:30:38;7.82;;;4.95;;
22024;SDS011;11176;51.448;6.650;2023-07-09T04:33:05;10.35;;;5.13;;
22024;SDS011;11176;51.448;6.650;2023-07-09T04:35:31;12.00;;;5.63;;
22024;SDS011;11176;51.448;6.650;2023-07-09T04:37:58;11.52;;;5.70;;
22024;SDS011;11176;51.448;6.650;2023-07-09T04:40:24;8.43;;;5.47;;
22024;SDS011;11176;51.448;6.650;2023-07-09T04:42:51;8.60;;;5.35;;
22024;SDS011;11176;51.448;6.650;2023-07-09T04:45:17;9.73;;;5.63;;
22024;SDS011;11176;51.448;6.650;2023-07-09T04:47:44;9.73;;;5.20;;
22024;SDS011;11176;51.448;6.650;2023-07-09T04:50:11;9.82;;;5.47;;
22024;SDS011;11176;51.448;6.650;2023-07-09T04:52:38;7.28;;;4.75;;
22024;SDS011;11176;51.448;6.650;2023-07-09T04:55:04;9.50;;;5.10;;
22024;SDS011;11176;51.448;6.650;2023-07-09T04:57:31;9.35;;;5.15;;
22024;SDS011;11176;51.448;6.650;2023-07-09T04:59:58;8.63;;;4.93;;
22024;SDS011;11176;51.448;6.650;2023-07-09T05:02:24;8.32;;;5.25;;
22024;SDS011;11176;51.448;6.650;2023-07-09T05:04:51;7.40;;;4.90;;
22024;SDS011;11176;51.448;6.650;2023-07-09T05:07:18;8.77;;;5.07;;
22024;SDS011;11176;51.448;6.650;2023-07-09T05:09:45;8.90;;;5.10;;
22024;SDS011;11176;51.448;6.650;2023-07-09T05:12:11;11.93;;;4.63;;
22024;SDS011;11176;51.448;6.650;2023-07-09T05:14:38;8.20;;;5.40;;
22024;SDS011;11176;51.448;6.650;2023-07-09T05:17:05;10.25;;;5.07;;
22024;SDS011;11176;51.448;6.650;2023-07-09T05:19:32;9.00;;;4.50;;
22024;SDS011;11176;51.448;6.650;2023-07-09T05:21:59;8.43;;;4.57;;
22024;SDS011;11176;51.448;6.650;2023-07-09T05:24:25;8.65;;;5.18;;
22024;SDS011;11176;51.448;6.650;2023-07-09T05:26:54;10.13;;;5.45;;
22024;SDS011;11176;51.448;6.650;2023-07-09T05:29:22;8.18;;;5.50;;
22024;SDS011;11176;51.448;6.650;2023-07-09T05:31:49;12.77;;;5.93;;
22024;SDS011;11176;51.448;6.650;2023-07-09T05:34:15;12.05;;;6.43;;
22024;SDS011;11176;51.448;6.650;2023-07-09T05:36:42;11.63;;;6.53;;
22024;SDS011;11176;51.448;6.650;2023-07-09T05:39:09;13.90;;;7.13;;
22024;SDS011;11176;51.448;6.650;2023-07-09T05:41:35;13.75;;;7.50;;
22024;SDS011;11176;51.448;6.650;2023-07-09T05:44:02;15.38;;;7.28;;
22024;SDS011;11176;51.448;6.650;2023-07-09T05:46:28;16.05;;;7.70;;
22024;SDS011;11176;51.448;6.650;2023-07-09T05:49:03;13.18;;;7.25;;
22024;SDS011;11176;51.448;6.650;2023-07-09T05:51:31;17.98;;;7.60;;
22024;SDS011;11176;51.448;6.650;2023-07-09T05:53:57;12.70;;;6.68;;
22024;SDS011;11176;51.448;6.650;2023-07-09T05:56:24;15.63;;;7.20;;
22024;SDS011;11176;51.448;6.650;2023-07-09T05:58:51;14.25;;;7.40;;
22024;SDS011;11176;51.448;6.650;2023-07-09T06:01:19;17.85;;;7.28;;
22024;SDS011;11176;51.448;6.650;2023-07-09T06:03:46;18.70;;;8.23;;
22024;SDS011;11176;51.448;6.650;2023-07-09T06:06:13;17.33;;;8.00;;
22024;SDS011;11176;51.448;6.650;2023-07-09T06:08:40;18.05;;;8.50;;
22024;SDS011;11176;51.448;6.650;2023-07-09T06:11:06;18.15;;;9.27;;
22024;SDS011;11176;51.448;6.650;2023-07-09T06:13:33;21.20;;;9.75;;
22024;SDS011;11176;51.448;6.650;2023-07-09T06:16:00;18.75;;;10.23;;
22024;SDS011;11176;51.448;6.650;2023-07-09T06:18:28;20.02;;;9.60;;
22024;SDS011;11176;51.448;6.650;2023-07-09T06:20:58;20.23;;;9.52;;
22024;SDS011;11176;51.448;6.650;2023-07-09T06:23:26;16.25;;;9.25;;
22024;SDS011;11176;51.448;6.650;2023-07-09T06:25:53;19.88;;;9.40;;
22024;SDS011;11176;51.448;6.650;2023-07-09T06:28:21;15.38;;;8.50;;
22024;SDS011;11176;51.448;6.650;2023-07-09T06:30:49;19.55;;;9.57;;
22024;SDS011;11176;51.448;6.650;2023-07-09T06:33:17;19.77;;;10.73;;
22024;SDS011;11176;51.448;6.650;2023-07-09T06:35:52;18.60;;;10.10;;
22024;SDS011;11176;51.448;6.650;2023-07-09T06:38:20;17.92;;;9.73;;
22024;SDS011;11176;51.448;6.650;2023-07-09T06:40:47;19.40;;;10.05;;
22024;SDS011;11176;51.448;6.650;2023-07-09T06:43:14;20.52;;;9.70;;
22024;SDS011;11176;51.448;6.650;2023-07-09T06:45:53;17.95;;;9.15;;
22024;SDS011;11176;51.448;6.650;2023-07-09T06:48:21;18.77;;;9.50;;
22024;SDS011;11176;51.448;6.650;2023-07-09T06:50:48;17.83;;;8.50;;
22024;SDS011;11176;51.448;6.650;2023-07-09T06:53:15;17.50;;;8.40;;
22024;SDS011;11176;51.448;6.650;2023-07-09T06:55:42;17.45;;;8.23;;
22024;SDS011;11176;51.448;6.650;2023-07-09T06:58:08;14.35;;;8.00;;
22024;SDS011;11176;51.448;6.650;2023-07-09T07:00:35;16.27;;;8.05;;
22024;SDS011;11176;51.448;6.650;2023-07-09T07:03:03;16.95;;;8.05;;
22024;SDS011;11176;51.448;6.650;2023-07-09T07:05:30;18.02;;;8.93;;
22024;SDS011;11176;51.448;6.650;2023-07-09T07:07:57;15.13;;;7.18;;
22024;SDS011;11176;51.448;6.650;2023-07-09T07:10:24;13.35;;;7.65;;
22024;SDS011;11176;51.448;6.650;2023-07-09T07:12:53;17.80;;;7.70;;
22024;SDS011;11176;51.448;6.650;2023-07-09T07:15:20;16.17;;;7.45;;
22024;SDS011;11176;51.448;6.650;2023-07-09T07:17:47;15.05;;;7.97;;
22024;SDS011;11176;51.448;6.650;2023-07-09T07:20:14;13.43;;;7.60;;
22024;SDS011;11176;51.448;6.650;2023-07-09T07:22:42;14.57;;;7.55;;
22024;SDS011;11176;51.448;6.650;2023-07-09T07:25:08;14.23;;;8.00;;
22024;SDS011;11176;51.448;6.650;2023-07-09T07:27:36;15.90;;;6.93;;
22024;SDS011;11176;51.448;6.650;2023-07-09T07:30:04;12.80;;;6.90;;
22024;SDS011;11176;51.448;6.650;2023-07-09T07:32:35;11.98;;;6.10;;
22024;SDS011;11176;51.448;6.650;2023-07-09T07:35:03;13.95;;;6.53;;
22024;SDS011;11176;51.448;6.650;2023-07-09T07:37:30;11.43;;;6.40;;
22024;SDS011;11176;51.448;6.650;2023-07-09T07:39:56;11.25;;;6.00;;
22024;SDS011;11176;51.448;6.650;2023-07-09T07:42:23;10.30;;;5.57;;
22024;SDS011;11176;51.448;6.650;2023-07-09T07:44:49;11.43;;;5.70;;
22024;SDS011;11176;51.448;6.650;2023-07-09T07:47:16;12.02;;;6.22;;
22024;SDS011;11176;51.448;6.650;2023-07-09T07:49:42;11.80;;;5.35;;
22024;SDS011;11176;51.448;6.650;2023-07-09T07:52:09;12.70;;;5.35;;
22024;SDS011;11176;51.448;6.650;2023-07-09T07:54:36;10.40;;;5.18;;
22024;SDS011;11176;51.448;6.650;2023-07-09T07:57:03;11.27;;;5.18;;
22024;SDS011;11176;51.448;6.650;2023-07-09T07:59:29;10.63;;;5.95;;
22024;SDS011;11176;51.448;6.650;2023-07-09T08:01:58;12.10;;;5.63;;
22024;SDS011;11176;51.448;6.650;2023-07-09T08:04:25;13.63;;;5.88;;
22024;SDS011;11176;51.448;6.650;2023-07-09T08:06:52;11.57;;;5.70;;
22024;SDS011;11176;51.448;6.650;2023-07-09T08:09:19;11.82;;;5.80;;
22024;SDS011;11176;51.448;6.650;2023-07-09T08:11:46;12.35;;;6.13;;
22024;SDS011;11176;51.448;6.650;2023-07-09T08:14:12;11.77;;;5.68;;
22024;SDS011;11176;51.448;6.650;2023-07-09T08:16:39;8.30;;;5.20;;
22024;SDS011;11176;51.448;6.650;2023-07-09T08:19:06;10.40;;;5.45;;
22024;SDS011;11176;51.448;6.650;2023-07-09T08:21:32;9.13;;;4.13;;
22024;SDS011;11176;51.448;6.650;2023-07-09T08:23:59;11.27;;;5.20;;
22024;SDS011;11176;51.448;6.650;2023-07-09T08:26:26;10.02;;;4.78;;
22024;SDS011;11176;51.448;6.650;2023-07-09T08:28:53;5.60;;;3.40;;
22024;SDS011;11176;51.448;6.650;2023-07-09T08:31:20;9.90;;;4.70;;
22024;SDS011;11176;51.448;6.650;2023-07-09T08:33:46;5.85;;;3.80;;
22024;SDS011;11176;51.448;6.650;2023-07-09T08:36:13;8.45;;;4.53;;
22024;SDS011;11176;51.448;6.650;2023-07-09T08:38:40;7.13;;;3.72;;
22024;SDS011;11176;51.448;6.650;2023-07-09T08:41:08;6.93;;;3.60;;
22024;SDS011;11176;51.448;6.650;2023-07-09T08:43:50;8.95;;;4.93;;
22024;SDS011;11176;51.448;6.650;2023-07-09T08:49:33;8.07;;;4.68;;
22024;SDS011;11176;51.448;6.650;2023-07-09T08:52:00;9.35;;;5.03;;
22024;SDS011;11176;51.448;6.650;2023-07-09T08:54:32;10.90;;;5.60;;
22024;SDS011;11176;51.448;6.650;2023-07-09T08:57:05;6.88;;;3.90;;
22024;SDS011;11176;51.448;6.650;2023-07-09T08:59:44;14.60;;;5.13;;
22024;SDS011;11176;51.448;6.650;2023-07-09T09:02:46;8.25;;;4.50;;
22024;SDS011;11176;51.448;6.650;2023-07-09T09:05:17;5.50;;;3.13;;
22024;SDS011;11176;51.448;6.650;2023-07-09T09:07:48;4.60;;;2.90;;
22024;SDS011;11176;51.448;6.650;2023-07-09T09:10:33;3.60;;;2.60;;
22024;SDS011;11176;51.448;6.650;2023-07-09T09:15:39;13.70;;;5.88;;
22024;SDS011;11176;51.448;6.650;2023-07-09T09:18:33;8.30;;;5.03;;
22024;SDS011;11176;51.448;6.650;2023-07-09T09:23:48;9.65;;;4.38;;
22024;SDS011;11176;51.448;6.650;2023-07-09T09:26:21;5.65;;;3.40;;
22024;SDS011;11176;51.448;6.650;2023-07-09T09:28:53;5.70;;;3.10;;
22024;SDS011;11176;51.448;6.650;2023-07-09T09:31:19;4.32;;;2.50;;
22024;SDS011;11176;51.448;6.650;2023-07-09T09:33:47;5.47;;;2.40;;
22024;SDS011;11176;51.448;6.650;2023-07-09T09:36:16;3.95;;;2.55;;
22024;SDS011;11176;51.448;6.650;2023-07-09T09:38:49;4.15;;;2.50;;
22024;SDS011;11176;51.448;6.650;2023-07-09T09:41:18;3.90;;;2.55;;
22024;SDS011;11176;51.448;6.650;2023-07-09T09:43:47;6.93;;;3.35;;
22024;SDS011;11176;51.448;6.650;2023-07-09T09:46:18;6.13;;;3.20;;
22024;SDS011;11176;51.448;6.650;2023-07-09T09:48:48;4.38;;;2.60;;
22024;SDS011;11176;51.448;6.650;2023-07-09T09:51:17;6.22;;;2.58;;
22024;SDS011;11176;51.448;6.650;2023-07-09T09:53:46;7.43;;;3.85;;
22024;SDS011;11176;51.448;6.650;2023-07-09T09:56:17;3.35;;;2.05;;
22024;SDS011;11176;51.448;6.650;2023-07-09T09:58:51;5.28;;;2.55;;
22024;SDS011;11176;51.448;6.650;2023-07-09T10:01:20;3.47;;;2.25;;
22024;SDS011;11176;51.448;6.650;2023-07-09T10:03:55;7.63;;;3.53;;
22024;SDS011;11176;51.448;6.650;2023-07-09T10:06:36;5.18;;;3.25;;
22024;SDS011;11176;51.448;6.650;2023-07-09T10:11:46;4.88;;;2.90;;
22024;SDS011;11176;51.448;6.650;2023-07-09T10:22:39;3.08;;;1.98;;
22024;SDS011;11176;51.448;6.650;2023-07-09T10:25:31;4.05;;;2.05;;
22024;SDS011;11176;51.448;6.650;2023-07-09T10:33:49;7.30;;;2.70;;
22024;SDS011;11176;51.448;6.650;2023-07-09T10:36:30;8.43;;;3.40;;
22024;SDS011;11176;51.448;6.650;2023-07-09T10:39:19;8.88;;;4.38;;
22024;SDS011;11176;51.448;6.650;2023-07-09T10:41:54;9.77;;;4.55;;
22024;SDS011;11176;51.448;6.650;2023-07-09T10:44:29;12.63;;;5.13;;
22024;SDS011;11176;51.448;6.650;2023-07-09T10:46:58;7.22;;;4.03;;
22024;SDS011;11176;51.448;6.650;2023-07-09T10:49:34;6.22;;;3.10;;
22024;SDS011;11176;51.448;6.650;2023-07-09T10:52:23;7.67;;;3.73;;
22024;SDS011;11176;51.448;6.650;2023-07-09T10:54:59;5.40;;;3.05;;
22024;SDS011;11176;51.448;6.650;2023-07-09T11:00:01;12.50;;;4.13;;
22024;SDS011;11176;51.448;6.650;2023-07-09T11:02:32;8.15;;;3.35;;
22024;SDS011;11176;51.448;6.650;2023-07-09T11:05:02;5.85;;;3.00;;
22024;SDS011;11176;51.448;6.650;2023-07-09T11:07:31;3.33;;;2.20;;
22024;SDS011;11176;51.448;6.650;2023-07-09T11:10:04;4.70;;;2.30;;
22024;SDS011;11176;51.448;6.650;2023-07-09T11:13:02;3.45;;;2.20;;
22024;SDS011;11176;51.448;6.650;2023-07-09T11:15:37;5.78;;;2.60;;
22024;SDS011;11176;51.448;6.650;2023-07-09T11:18:11;4.80;;;2.05;;
22024;SDS011;11176;51.448;6.650;2023-07-09T11:20:44;6.22;;;2.80;;
22024;SDS011;11176;51.448;6.650;2023-07-09T11:23:21;3.78;;;1.95;;
22024;SDS011;11176;51.448;6.650;2023-07-09T11:26:10;3.70;;;2.45;;
22024;SDS011;11176;51.448;6.650;2023-07-09T11:28:51;6.80;;;2.97;;
22024;SDS011;11176;51.448;6.650;2023-07-09T11:31:36;6.95;;;3.42;;
22024;SDS011;11176;51.448;6.650;2023-07-09T11:34:09;8.73;;;3.47;;
22024;SDS011;11176;51.448;6.650;2023-07-09T11:36:55;10.25;;;3.63;;
22024;SDS011;11176;51.448;6.650;2023-07-09T11:41:57;12.38;;;3.75;;
22024;SDS011;11176;51.448;6.650;2023-07-09T11:44:26;3.58;;;2.10;;
22024;SDS011;11176;51.448;6.650;2023-07-09T11:49:51;4.05;;;2.20;;
22024;SDS011;11176;51.448;6.650;2023-07-09T11:52:37;5.53;;;2.80;;
22024;SDS011;11176;51.448;6.650;2023-07-09T11:58:04;3.13;;;2.00;;
22024;SDS011;11176;51.448;6.650;2023-07-09T12:00:37;4.85;;;2.40;;
22024;SDS011;11176;51.448;6.650;2023-07-09T12:03:06;7.95;;;3.05;;
22024;SDS011;11176;51.448;6.650;2023-07-09T12:05:36;4.63;;;2.47;;
22024;SDS011;11176;51.448;6.650;2023-07-09T12:08:05;3.25;;;2.10;;
22024;SDS011;11176;51.448;6.650;2023-07-09T12:10:34;3.72;;;2.20;;
22024;SDS011;11176;51.448;6.650;2023-07-09T12:13:02;3.60;;;2.60;;
22024;SDS011;11176;51.448;6.650;2023-07-09T12:15:30;4.88;;;2.58;;
22024;SDS011;11176;51.448;6.650;2023-07-09T12:17:59;6.47;;;3.38;;
22024;SDS011;11176;51.448;6.650;2023-07-09T12:20:29;6.43;;;3.67;;
22024;SDS011;11176;51.448;6.650;2023-07-09T12:23:00;3.80;;;2.17;;
22024;SDS011;11176;51.448;6.650;2023-07-09T12:25:36;3.33;;;1.98;;
22024;SDS011;11176;51.448;6.650;2023-07-09T12:28:03;4.20;;;2.03;;
22024;SDS011;11176;51.448;6.650;2023-07-09T12:30:33;4.72;;;2.03;;
22024;SDS011;11176;51.448;6.650;2023-07-09T12:32:59;5.47;;;3.45;;
22024;SDS011;11176;51.448;6.650;2023-07-09T12:35:26;6.43;;;3.53;;
22024;SDS011;11176;51.448;6.650;2023-07-09T12:37:54;5.03;;;3.00;;
22024;SDS011;11176;51.448;6.650;2023-07-09T12:40:26;4.07;;;2.50;;
22024;SDS011;11176;51.448;6.650;2023-07-09T12:42:55;6.70;;;3.37;;
22024;SDS011;11176;51.448;6.650;2023-07-09T12:45:23;2.70;;;1.80;;
22024;SDS011;11176;51.448;6.650;2023-07-09T12:47:50;5.97;;;2.22;;
22024;SDS011;11176;51.448;6.650;2023-07-09T12:50:30;5.80;;;3.35;;
22024;SDS011;11176;51.448;6.650;2023-07-09T12:53:10;5.60;;;3.28;;
22024;SDS011;11176;51.448;6.650;2023-07-09T12:55:44;3.60;;;1.90;;
22024;SDS011;11176;51.448;6.650;2023-07-09T12:58:19;4.63;;;2.60;;
22024;SDS011;11176;51.448;6.650;2023-07-09T13:00:49;6.63;;;3.17;;
22024;SDS011;11176;51.448;6.650;2023-07-09T13:03:20;3.40;;;1.88;;
22024;SDS011;11176;51.448;6.650;2023-07-09T13:05:53;3.17;;;1.80;;
22024;SDS011;11176;51.448;6.650;2023-07-09T13:08:21;3.10;;;1.92;;
22024;SDS011;11176;51.448;6.650;2023-07-09T13:10:48;2.50;;;1.75;;
22024;SDS011;11176;51.448;6.650;2023-07-09T13:13:18;3.33;;;1.83;;
22024;SDS011;11176;51.448;6.650;2023-07-09T13:15:55;6.53;;;2.50;;
22024;SDS011;11176;51.448;6.650;2023-07-09T13:18:25;6.05;;;3.38;;
22024;SDS011;11176;51.448;6.650;2023-07-09T13:20:51;7.05;;;3.40;;
22024;SDS011;11176;51.448;6.650;2023-07-09T13:23:23;10.00;;;3.70;;
22024;SDS011;11176;51.448;6.650;2023-07-09T13:25:54;6.40;;;3.63;;
22024;SDS011;11176;51.448;6.650;2023-07-09T13:28:28;4.30;;;2.63;;
22024;SDS011;11176;51.448;6.650;2023-07-09T13:30:57;3.47;;;2.10;;
22024;SDS011;11176;51.448;6.650;2023-07-09T13:33:26;5.28;;;2.60;;
22024;SDS011;11176;51.448;6.650;2023-07-09T13:35:53;3.08;;;1.67;;
22024;SDS011;11176;51.448;6.650;2023-07-09T13:38:21;4.45;;;2.13;;
22024;SDS011;11176;51.448;6.650;2023-07-09T13:40:50;7.13;;;3.88;;
22024;SDS011;11176;51.448;6.650;2023-07-09T13:43:24;10.57;;;4.20;;
22024;SDS011;11176;51.448;6.650;2023-07-09T13:45:57;12.07;;;4.57;;
22024;SDS011;11176;51.448;6.650;2023-07-09T13:48:26;8.70;;;3.95;;
22024;SDS011;11176;51.448;6.650;2023-07-09T13:50:56;8.95;;;3.53;;
22024;SDS011;11176;51.448;6.650;2023-07-09T13:53:24;12.27;;;4.15;;
22024;SDS011;11176;51.448;6.650;2023-07-09T13:55:54;9.52;;;4.78;;
22024;SDS011;11176;51.448;6.650;2023-07-09T13:58:22;6.22;;;3.53;;
22024;SDS011;11176;51.448;6.650;2023-07-09T14:00:50;6.50;;;3.90;;
22024;SDS011;11176;51.448;6.650;2023-07-09T14:03:22;7.07;;;3.67;;
22024;SDS011;11176;51.448;6.650;2023-07-09T14:05:51;6.18;;;3.45;;
22024;SDS011;11176;51.448;6.650;2023-07-09T14:08:18;7.88;;;3.63;;
22024;SDS011;11176;51.448;6.650;2023-07-09T14:10:46;7.63;;;3.60;;
22024;SDS011;11176;51.448;6.650;2023-07-09T14:13:17;7.35;;;3.25;;
22024;SDS011;11176;51.448;6.650;2023-07-09T14:15:46;9.98;;;3.67;;
22024;SDS011;11176;51.448;6.650;2023-07-09T14:18:14;8.40;;;3.55;;
22024;SDS011;11176;51.448;6.650;2023-07-09T14:20:43;9.63;;;3.60;;
22024;SDS011;11176;51.448;6.650;2023-07-09T14:23:13;9.60;;;4.28;;
22024;SDS011;11176;51.448;6.650;2023-07-09T14:25:42;5.70;;;3.40;;
22024;SDS011;11176;51.448;6.650;2023-07-09T14:28:10;7.32;;;3.88;;
22024;SDS011;11176;51.448;6.650;2023-07-09T14:30:38;7.80;;;4.05;;
22024;SDS011;11176;51.448;6.650;2023-07-09T14:33:19;9.27;;;4.63;;
22024;SDS011;11176;51.448;6.650;2023-07-09T14:35:47;7.47;;;4.03;;
22024;SDS011;11176;51.448;6.650;2023-07-09T14:38:18;7.72;;;4.03;;
22024;SDS011;11176;51.448;6.650;2023-07-09T14:43:15;8.68;;;4.25;;
22024;SDS011;11176;51.448;6.650;2023-07-09T14:45:42;9.95;;;4.75;;
22024;SDS011;11176;51.448;6.650;2023-07-09T14:48:12;9.98;;;3.95;;
22024;SDS011;11176;51.448;6.650;2023-07-09T14:50:43;9.70;;;3.92;;
22024;SDS011;11176;51.448;6.650;2023-07-09T14:53:12;8.35;;;4.20;;
22024;SDS011;11176;51.448;6.650;2023-07-09T14:55:39;7.85;;;3.70;;
22024;SDS011;11176;51.448;6.650;2023-07-09T14:58:11;4.68;;;3.10;;
22024;SDS011;11176;51.448;6.650;2023-07-09T15:00:41;7.47;;;3.30;;
22024;SDS011;11176;51.448;6.650;2023-07-09T15:03:09;6.75;;;3.67;;
22024;SDS011;11176;51.448;6.650;2023-07-09T15:05:38;11.55;;;5.70;;
22024;SDS011;11176;51.448;6.650;2023-07-09T15:08:18;10.35;;;5.50;;
22024;SDS011;11176;51.448;6.650;2023-07-09T15:10:48;9.98;;;6.03;;
22024;SDS011;11176;51.448;6.650;2023-07-09T15:15:52;12.27;;;6.75;;
22024;SDS011;11176;51.448;6.650;2023-07-09T15:18:19;11.35;;;6.57;;
22024;SDS011;11176;51.448;6.650;2023-07-09T15:20:50;13.13;;;7.00;;
22024;SDS011;11176;51.448;6.650;2023-07-09T15:23:18;7.07;;;4.55;;
22024;SDS011;11176;51.448;6.650;2023-07-09T15:25:48;7.18;;;3.75;;
22024;SDS011;11176;51.448;6.650;2023-07-09T15:28:16;5.80;;;3.60;;
22024;SDS011;11176;51.448;6.650;2023-07-09T15:30:43;7.72;;;3.90;;
22024;SDS011;11176;51.448;6.650;2023-07-09T15:33:16;5.90;;;4.10;;
22024;SDS011;11176;51.448;6.650;2023-07-09T15:35:45;7.05;;;4.63;;
22024;SDS011;11176;51.448;6.650;2023-07-09T15:40:47;12.23;;;8.13;;
22024;SDS011;11176;51.448;6.650;2023-07-09T15:43:15;10.23;;;7.72;;